Time;durP1;ratioP1;P1;durP2;ratioP2;P2;SDS_P1;SDS_P2;PMS_P1;PMS_P2;Temp;Humidity;BMP_temperature;BMP_pressure;BME280_temperature;BME280_humidity;BME280_pressure;Samples;Min_cycle;Max_cycle;Signal;HPM_P1;HPM_P2
2020/12/09 00:01:28;;;;;;;12.60;9.25;;;20.40;56.40;;;;;;5201193;28;20390;-77
2020/12/09 00:04:00;;;;;;;16.23;9.20;;;20.40;56.30;;;;;;5207171;28;20013;-77
2020/12/09 00:06:35;;;;;;;14.82;9.13;;;20.50;56.40;;;;;;5224185;28;20116;-77
2020/12/09 00:09:11;;;;;;;10.55;8.60;;;20.40;56.50;;;;;;5206418;28;20023;-77
2020/12/09 00:11:41;;;;;;;11.30;8.65;;;20.50;56.40;;;;;;5206152;28;20021;-77
2020/12/09 00:14:12;;;;;;;12.75;9.05;;;20.50;56.50;;;;;;5190720;28;20044;-77
2020/12/09 00:16:42;;;;;;;20.90;9.30;;;20.40;56.30;;;;;;5205503;28;20394;-76
2020/12/09 00:19:13;;;;;;;11.00;8.60;;;20.60;56.50;;;;;;5206736;28;20036;-77
2020/12/09 00:21:43;;;;;;;12.98;8.73;;;20.60;56.50;;;;;;5206079;28;20025;-77
2020/12/09 00:24:14;;;;;;;13.02;9.00;;;20.50;56.50;;;;;;5206308;28;20067;-77
2020/12/09 00:26:44;;;;;;;10.43;9.10;;;20.40;56.70;;;;;;5224241;28;20080;-77
2020/12/09 00:29:15;;;;;;;12.82;8.85;;;20.50;56.50;;;;;;5206323;28;20047;-77
2020/12/09 00:31:45;;;;;;;12.98;8.85;;;20.50;56.60;;;;;;5204792;28;20036;-76
2020/12/09 00:34:15;;;;;;;14.25;8.90;;;20.50;56.60;;;;;;5190107;28;20021;-77
2020/12/09 00:36:46;;;;;;;12.27;9.43;;;20.50;56.70;;;;;;5206307;28;20037;-76
2020/12/09 00:39:16;;;;;;;15.00;8.55;;;20.50;56.50;;;;;;5205784;28;20017;-78
2020/12/09 00:41:47;;;;;;;10.63;8.40;;;20.50;56.70;;;;;;5211194;28;20029;-77
2020/12/09 00:44:17;;;;;;;11.23;8.80;;;20.50;56.30;;;;;;5206309;28;20088;-77
2020/12/09 00:46:48;;;;;;;11.30;8.65;;;20.50;56.30;;;;;;5206104;28;20021;-76
2020/12/09 00:49:18;;;;;;;12.25;9.02;;;20.50;56.30;;;;;;5206096;28;20021;-76
2020/12/09 00:51:49;;;;;;;12.18;9.15;;;20.50;56.50;;;;;;5189536;28;20489;-76
2020/12/09 00:54:19;;;;;;;10.57;8.50;;;20.50;56.30;;;;;;5189473;28;20036;-78
2020/12/09 00:56:50;;;;;;;11.25;8.70;;;20.50;56.50;;;;;;5206503;28;20490;-77
2020/12/09 00:59:20;;;;;;;10.82;8.93;;;20.50;56.60;;;;;;5189580;28;20021;-76
2020/12/09 01:01:51;;;;;;;9.43;8.43;;;20.50;56.70;;;;;;5205024;28;20483;-77
2020/12/09 01:04:21;;;;;;;10.65;8.65;;;20.50;56.90;;;;;;5208049;28;20021;-77
2020/12/09 01:06:52;;;;;;;14.10;9.10;;;20.50;57.00;;;;;;5210107;28;20024;-77
2020/12/09 01:09:22;;;;;;;13.38;8.48;;;20.50;56.60;;;;;;5193289;28;20028;-77
2020/12/09 01:11:53;;;;;;;12.05;8.73;;;20.60;57.70;;;;;;5209830;28;20112;-77
2020/12/09 01:14:25;;;;;;;10.88;8.68;;;20.70;57.70;;;;;;5239749;22;20021;31
2020/12/09 01:16:55;;;;;;;11.15;8.82;;;20.70;57.40;;;;;;5132515;28;20094;-75
2020/12/09 01:19:26;;;;;;;12.50;8.65;;;20.70;57.30;;;;;;5127838;28;20465;-75
2020/12/09 01:21:57;;;;;;;12.50;9.15;;;20.70;57.20;;;;;;5129089;28;20082;-75
2020/12/09 01:24:27;;;;;;;11.07;8.57;;;20.70;57.90;;;;;;5146376;28;20022;-76
2020/12/09 01:26:58;;;;;;;13.10;8.95;;;20.70;57.60;;;;;;5148950;28;20026;-76
2020/12/09 01:29:28;;;;;;;15.80;8.98;;;20.80;57.20;;;;;;5164645;28;20049;-75
2020/12/09 01:32:02;;;;;;;10.73;8.98;;;20.80;57.80;;;;;;5163289;28;20030;-76
2020/12/09 01:34:32;;;;;;;11.02;8.85;;;20.80;57.60;;;;;;5148154;28;20058;-75
2020/12/09 01:37:03;;;;;;;12.70;8.35;;;20.80;57.80;;;;;;5165558;28;20053;-75
2020/12/09 01:39:33;;;;;;;11.38;8.82;;;20.80;57.90;;;;;;5158539;28;20130;-75
2020/12/09 01:42:04;;;;;;;12.73;8.48;;;20.70;57.90;;;;;;5148483;28;20064;-75
2020/12/09 01:44:34;;;;;;;9.40;8.13;;;20.80;57.70;;;;;;5147873;28;20523;-75
2020/12/09 01:47:05;;;;;;;10.68;8.77;;;20.80;57.70;;;;;;5148356;28;20026;-76
2020/12/09 01:49:35;;;;;;;15.32;7.82;;;20.70;57.60;;;;;;5164121;28;20121;-76
2020/12/09 01:52:06;;;;;;;9.82;7.95;;;20.70;57.80;;;;;;5164307;28;20113;-75
2020/12/09 01:54:37;;;;;;;10.40;8.15;;;20.70;57.80;;;;;;5147674;28;20034;-75
2020/12/09 01:57:09;;;;;;;12.20;8.80;;;20.70;57.90;;;;;;5164965;28;20022;-75
2020/12/09 01:59:40;;;;;;;10.60;8.35;;;20.70;57.70;;;;;;5164387;28;20049;-75
2020/12/09 02:02:10;;;;;;;8.82;7.93;;;20.80;58.10;;;;;;5130226;28;20026;-75
2020/12/09 02:04:41;;;;;;;11.18;9.13;;;20.80;57.80;;;;;;5127771;28;20062;-75
2020/12/09 02:07:11;;;;;;;10.88;9.02;;;20.80;57.90;;;;;;5128630;28;20448;-75
2020/12/09 02:09:42;;;;;;;10.20;8.60;;;20.80;58.30;;;;;;5134211;28;20035;-76
2020/12/09 02:12:12;;;;;;;12.20;8.82;;;20.90;58.00;;;;;;5163559;28;20033;-76
2020/12/09 02:14:43;;;;;;;11.15;8.82;;;20.90;57.90;;;;;;5127474;28;20027;-75
2020/12/09 02:17:13;;;;;;;10.27;8.40;;;20.90;58.10;;;;;;5142833;28;20043;-76
2020/12/09 02:19:44;;;;;;;10.00;8.60;;;20.80;58.00;;;;;;5163169;28;20084;-75
2020/12/09 02:22:14;;;;;;;10.98;8.38;;;20.90;58.20;;;;;;5147759;28;20034;-75
2020/12/09 02:24:45;;;;;;;9.65;8.27;;;20.80;58.40;;;;;;5163040;28;20085;-75
2020/12/09 02:27:15;;;;;;;18.80;8.93;;;20.80;57.90;;;;;;5164237;28;20026;-74
2020/12/09 02:29:46;;;;;;;12.88;8.95;;;20.80;59.00;;;;;;5163401;28;20065;-75
2020/12/09 02:32:16;;;;;;;12.57;8.50;;;20.80;58.80;;;;;;5162870;28;20034;-75
2020/12/09 02:34:47;;;;;;;13.90;8.55;;;20.90;59.00;;;;;;5163810;28;20077;-75
2020/12/09 02:37:17;;;;;;;17.27;8.60;;;20.80;58.80;;;;;;5163818;28;20022;-75
2020/12/09 02:39:48;;;;;;;16.40;8.75;;;20.90;58.80;;;;;;5146924;28;20040;-75
2020/12/09 02:42:18;;;;;;;10.77;8.65;;;20.90;58.60;;;;;;5147122;28;20031;-75
2020/12/09 02:44:49;;;;;;;14.77;8.45;;;20.90;58.50;;;;;;5163342;28;20030;-74
2020/12/09 02:47:19;;;;;;;9.63;8.35;;;20.90;58.50;;;;;;5146861;28;20156;-75
2020/12/09 02:49:50;;;;;;;12.73;8.35;;;20.90;59.20;;;;;;5162738;28;20566;-75
2020/12/09 02:52:20;;;;;;;10.23;8.23;;;20.90;58.50;;;;;;5146998;28;20030;-75
2020/12/09 02:54:51;;;;;;;11.73;9.45;;;20.90;58.30;;;;;;5163242;28;20520;-75
2020/12/09 02:57:21;;;;;;;10.15;8.43;;;20.90;58.20;;;;;;5163559;28;20033;-75
2020/12/09 02:59:52;;;;;;;13.98;8.30;;;20.90;58.50;;;;;;5146333;28;20065;-76
2020/12/09 03:02:22;;;;;;;11.40;8.90;;;20.90;58.60;;;;;;5130295;28;20062;-75
2020/12/09 03:04:52;;;;;;;10.55;8.40;;;20.90;58.80;;;;;;5162340;28;20035;-76
2020/12/09 03:07:23;;;;;;;13.43;8.35;;;20.80;59.00;;;;;;5163428;28;20452;-75
2020/12/09 03:09:54;;;;;;;11.73;8.65;;;20.90;58.80;;;;;;5146395;28;20084;-76
2020/12/09 03:12:24;;;;;;;12.73;9.23;;;20.90;58.80;;;;;;5162839;28;20057;-75
2020/12/09 03:14:54;;;;;;;14.43;8.73;;;20.90;58.80;;;;;;5162460;28;20104;-75
2020/12/09 03:17:25;;;;;;;11.88;8.38;;;20.90;59.60;;;;;;5162152;28;20068;-75
2020/12/09 03:19:56;;;;;;;12.32;8.38;;;20.90;59.20;;;;;;5146360;28;20050;-75
2020/12/09 03:22:26;;;;;;;11.43;8.38;;;20.90;58.90;;;;;;5146560;28;20527;-75
2020/12/09 03:24:56;;;;;;;11.85;8.70;;;21.00;58.70;;;;;;5162663;28;20030;-75
2020/12/09 03:27:27;;;;;;;12.02;8.55;;;20.90;59.00;;;;;;5162619;28;20104;-75
2020/12/09 03:29:57;;;;;;;13.80;8.07;;;20.90;58.90;;;;;;5145736;28;20097;-75
2020/12/09 03:32:28;;;;;;;11.98;8.60;;;20.90;58.80;;;;;;5145575;28;20042;-76
2020/12/09 03:34:58;;;;;;;12.05;8.38;;;20.90;58.70;;;;;;5137959;28;20022;-75
2020/12/09 03:37:29;;;;;;;15.02;9.10;;;20.90;58.70;;;;;;5162364;28;20122;-75
2020/12/09 03:39:59;;;;;;;13.40;8.10;;;20.90;59.10;;;;;;5161447;28;20096;-75
2020/12/09 03:42:30;;;;;;;13.10;8.50;;;20.90;59.10;;;;;;5162139;28;20035;-75
2020/12/09 03:45:00;;;;;;;12.38;8.35;;;20.90;58.90;;;;;;5161438;28;20039;-75
2020/12/09 03:47:31;;;;;;;10.55;8.27;;;20.80;58.80;;;;;;5145691;28;20057;-74
2020/12/09 03:50:03;;;;;;;9.18;7.85;;;20.80;58.10;;;;;;5161888;28;20034;-75
2020/12/09 03:52:33;;;;;;;10.93;8.35;;;20.80;57.20;;;;;;5162290;28;20022;-76
2020/12/09 03:55:04;;;;;;;11.85;8.25;;;20.90;57.20;;;;;;5145233;28;20527;-75
2020/12/09 03:57:34;;;;;;;12.32;7.80;;;20.80;57.10;;;;;;5162352;28;20038;-75
2020/12/09 04:00:05;;;;;;;10.48;8.38;;;20.80;56.80;;;;;;5144834;28;20113;-75
2020/12/09 04:02:35;;;;;;;12.43;8.05;;;20.80;56.70;;;;;;5161162;28;20041;-75
2020/12/09 04:05:06;;;;;;;12.75;7.55;;;20.90;56.60;;;;;;5145057;28;20456;-74
2020/12/09 04:07:37;;;;;;;11.63;8.50;;;20.90;56.70;;;;;;5161889;28;20026;-74
2020/12/09 04:10:07;;;;;;;11.52;7.95;;;20.90;56.40;;;;;;5145779;28;20027;-74
2020/12/09 04:12:38;;;;;;;11.50;7.90;;;20.90;56.00;;;;;;5152133;28;20472;-75
2020/12/09 04:15:08;;;;;;;13.55;7.53;;;20.90;56.10;;;;;;5160373;28;20027;-74
2020/12/09 04:17:39;;;;;;;10.05;7.75;;;21.00;56.10;;;;;;5129107;28;20026;-75
2020/12/09 04:20:09;;;;;;;12.98;8.15;;;21.00;56.00;;;;;;5147586;28;20036;-75
2020/12/09 04:22:40;;;;;;;13.25;8.50;;;21.00;55.90;;;;;;5153676;28;20503;-75
2020/12/09 04:25:10;;;;;;;8.65;7.13;;;21.00;55.70;;;;;;5165089;28;20066;-75
2020/12/09 04:27:41;;;;;;;10.25;7.57;;;21.00;55.90;;;;;;5128844;28;20396;-75
2020/12/09 04:30:11;;;;;;;10.60;7.72;;;20.90;55.60;;;;;;5154958;28;20037;-74
2020/12/09 04:32:42;;;;;;;10.40;8.00;;;20.90;56.40;;;;;;5161368;28;20401;-75
2020/12/09 04:35:12;;;;;;;9.73;7.72;;;21.00;55.70;;;;;;5162903;28;20023;-75
2020/12/09 04:37:44;;;;;;;10.10;7.82;;;21.00;55.40;;;;;;5134740;28;20023;-75
2020/12/09 04:40:15;;;;;;;10.98;7.90;;;21.00;55.60;;;;;;5144589;28;20527;-75
2020/12/09 04:42:59;;;;;;;9.45;7.22;;;21.00;55.70;;;;;;5129601;28;20043;-75
2020/12/09 04:45:30;;;;;;;11.02;7.85;;;21.00;55.70;;;;;;5128464;28;20035;-75
2020/12/09 04:48:08;;;;;;;9.95;7.78;;;21.00;55.60;;;;;;5129914;28;20520;-74
2020/12/09 04:51:17;;;;;;;11.52;8.02;;;21.00;55.50;;;;;;5154506;28;20528;-75
2020/12/09 04:53:51;;;;;;;8.55;7.18;;;20.90;55.60;;;;;;5166131;28;20506;-74
2020/12/09 04:56:25;;;;;;;10.02;7.70;;;21.00;55.60;;;;;;5165170;28;20455;-74
2020/12/09 04:58:56;;;;;;;10.85;7.30;;;21.00;55.70;;;;;;5165865;28;20026;-75
2020/12/09 05:01:27;;;;;;;9.02;7.35;;;21.00;55.40;;;;;;5147566;28;20034;-75
2020/12/09 05:03:58;;;;;;;9.05;7.30;;;21.00;55.40;;;;;;5166825;28;20024;-75
2020/12/09 05:06:28;;;;;;;9.55;7.47;;;21.00;55.30;;;;;;5161033;28;20030;-75
2020/12/09 05:08:59;;;;;;;9.68;7.70;;;21.00;55.20;;;;;;5130441;28;20035;-74
2020/12/09 05:11:29;;;;;;;10.98;7.70;;;21.00;55.30;;;;;;5144627;28;20043;-75
2020/12/09 05:14:00;;;;;;;9.43;7.15;;;21.00;55.30;;;;;;5146579;28;20077;-75
2020/12/09 05:16:30;;;;;;;9.15;7.65;;;21.10;55.30;;;;;;5144104;28;20054;-74
2020/12/09 05:19:01;;;;;;;9.35;6.90;;;21.10;55.30;;;;;;5166077;28;20027;-75
2020/12/09 05:21:31;;;;;;;10.85;7.22;;;21.00;55.20;;;;;;5164461;28;20053;-75
2020/12/09 05:24:02;;;;;;;9.82;7.32;;;21.00;55.40;;;;;;5145214;28;20027;-74
2020/12/09 05:26:34;;;;;;;9.25;6.72;;;21.00;55.30;;;;;;5147193;28;20038;-75
2020/12/09 05:29:12;;;;;;;8.27;7.13;;;21.00;55.50;;;;;;5149425;28;20117;-74
2020/12/09 05:31:44;;;;;;;13.80;7.35;;;21.00;55.30;;;;;;5165140;28;20712;-75
2020/12/09 05:34:18;;;;;;;8.50;7.20;;;21.00;55.20;;;;;;5149589;28;20038;-74
2020/12/09 05:36:56;;;;;;;8.70;6.97;;;21.00;55.20;;;;;;5170209;28;20057;-75
2020/12/09 05:39:27;;;;;;;8.70;7.18;;;21.10;55.00;;;;;;5164787;28;20033;-75
2020/12/09 05:41:58;;;;;;;8.68;7.05;;;21.10;55.20;;;;;;5164768;28;20026;-74
2020/12/09 05:44:28;;;;;;;9.77;7.53;;;21.10;55.00;;;;;;5164437;28;20054;-75
2020/12/09 05:47:02;;;;;;;9.38;7.15;;;21.00;55.10;;;;;;5163979;28;20065;-74
2020/12/09 05:49:36;;;;;;;8.60;6.75;;;21.00;55.30;;;;;;5147940;28;20034;-74
2020/12/09 05:52:14;;;;;;;9.00;7.17;;;21.10;55.10;;;;;;5165178;28;20027;-75
2020/12/09 05:54:46;;;;;;;9.00;6.80;;;21.10;55.20;;;;;;5148144;28;20655;-75
2020/12/09 05:57:17;;;;;;;9.55;7.15;;;21.10;54.90;;;;;;5164554;28;20113;-75
2020/12/09 05:59:48;;;;;;;9.63;6.95;;;21.10;55.00;;;;;;5148208;28;20034;-75
2020/12/09 06:02:28;;;;;;;8.80;7.13;;;21.10;55.00;;;;;;5146710;28;20037;-74
2020/12/09 06:05:00;;;;;;;8.55;6.97;;;21.10;55.60;;;;;;5164401;28;20125;-75
2020/12/09 06:07:31;;;;;;;8.15;6.45;;;21.10;55.00;;;;;;5148023;28;20031;-75
2020/12/09 06:10:06;;;;;;;8.25;6.72;;;21.10;55.20;;;;;;5164042;28;20517;-75
2020/12/09 06:12:59;;;;;;;9.07;7.07;;;21.10;55.20;;;;;;5171109;28;20037;-75
2020/12/09 06:15:31;;;;;;;9.13;6.82;;;21.10;54.90;;;;;;5154484;28;20108;-75
2020/12/09 06:18:05;;;;;;;8.57;6.68;;;21.10;54.90;;;;;;5148083;28;20027;-75
2020/12/09 06:20:37;;;;;;;7.97;7.18;;;21.10;55.10;;;;;;5164741;28;20042;-75
2020/12/09 06:23:15;;;;;;;10.43;7.50;;;21.10;55.00;;;;;;5160674;28;20523;-76
2020/12/09 06:25:46;;;;;;;7.88;6.40;;;21.20;55.00;;;;;;5163823;28;20567;-75
2020/12/09 06:28:18;;;;;;;10.30;7.07;;;21.10;55.00;;;;;;5147247;28;20026;-75
2020/12/09 06:30:49;;;;;;;9.15;6.85;;;21.10;55.30;;;;;;5142881;28;20596;-75
2020/12/09 06:33:30;;;;;;;8.18;6.47;;;21.10;55.10;;;;;;5159226;28;20035;-75
2020/12/09 06:36:21;;;;;;;8.25;6.85;;;21.10;55.00;;;;;;5163655;28;20070;-75
2020/12/09 06:39:19;;;;;;;12.27;6.90;;;21.20;54.80;;;;;;5143185;28;20022;-75
2020/12/09 06:41:50;;;;;;;7.82;6.65;;;21.10;55.00;;;;;;5162488;28;20030;-76
2020/12/09 06:44:21;;;;;;;8.85;6.93;;;21.10;55.00;;;;;;5153632;28;20040;-75
2020/12/09 06:46:52;;;;;;;9.23;6.85;;;21.10;55.00;;;;;;5162755;28;20038;-75
2020/12/09 06:49:32;;;;;;;10.05;7.10;;;21.10;55.00;;;;;;5163322;28;20030;-76
2020/12/09 06:52:09;;;;;;;9.60;7.32;;;21.10;55.10;;;;;;5163127;28;20097;-75
2020/12/09 06:54:41;;;;;;;21.38;6.80;;;21.10;55.10;;;;;;5161817;28;20106;-76
2020/12/09 06:57:29;;;;;;;8.43;6.45;;;21.10;56.30;;;;;;5160291;28;20030;-75
2020/12/09 07:00:19;;;;;;;10.60;6.90;;;21.30;55.30;;;;;;5139448;28;20065;-76
2020/12/09 07:02:51;;;;;;;9.00;7.20;;;21.30;54.90;;;;;;5161741;28;20509;-75
2020/12/09 07:05:31;;;;;;;9.57;7.07;;;21.30;54.60;;;;;;5129084;28;20085;-75
2020/12/09 07:08:02;;;;;;;8.10;6.57;;;21.30;54.80;;;;;;5134230;28;20080;-75
2020/12/09 07:10:33;;;;;;;9.82;7.15;;;21.30;54.60;;;;;;5162735;28;20034;-75
2020/12/09 07:13:05;;;;;;;9.70;6.72;;;21.40;54.60;;;;;;5162723;28;20088;-75
2020/12/09 07:15:42;;;;;;;8.88;6.50;;;21.40;54.60;;;;;;5160816;28;20030;-74
2020/12/09 07:18:12;;;;;;;9.68;6.68;;;21.40;54.80;;;;;;5155309;28;20441;-75
2020/12/09 07:20:43;;;;;;;8.20;6.35;;;21.40;54.70;;;;;;5126881;28;20035;-74
2020/12/09 07:23:14;;;;;;;8.73;6.43;;;21.40;54.40;;;;;;5142479;28;20034;-74
2020/12/09 07:25:44;;;;;;;9.20;6.40;;;21.40;54.50;;;;;;5146307;28;20459;-75
2020/12/09 07:28:15;;;;;;;8.80;6.72;;;21.40;54.50;;;;;;5146979;28;20041;-75
2020/12/09 07:30:47;;;;;;;7.63;6.05;;;21.40;54.40;;;;;;5145355;28;20509;-76
2020/12/09 07:33:17;;;;;;;8.48;6.43;;;21.40;54.50;;;;;;5146098;28;20033;-75
2020/12/09 07:35:48;;;;;;;8.82;6.53;;;21.40;54.20;;;;;;5117340;28;20031;-75
2020/12/09 07:38:18;;;;;;;10.63;6.53;;;21.40;54.50;;;;;;5126551;28;20122;-75
2020/12/09 07:40:49;;;;;;;8.15;6.38;;;21.40;54.30;;;;;;5145026;28;20456;-75
2020/12/09 07:43:19;;;;;;;8.15;6.45;;;21.40;54.50;;;;;;5147649;28;20089;-75
2020/12/09 07:45:50;;;;;;;7.82;6.28;;;21.40;54.50;;;;;;5134079;28;20410;-75
2020/12/09 07:48:21;;;;;;;9.18;6.22;;;21.40;54.50;;;;;;5122461;28;20042;-75
2020/12/09 07:50:52;;;;;;;9.48;6.63;;;21.40;54.50;;;;;;5125922;28;20122;-75
2020/12/09 07:53:22;;;;;;;7.60;6.35;;;21.40;54.30;;;;;;5126369;28;20508;-75
2020/12/09 07:55:53;;;;;;;9.02;6.72;;;21.40;54.50;;;;;;5126023;28;20026;-75
2020/12/09 07:58:23;;;;;;;8.10;6.38;;;21.40;54.60;;;;;;5143838;28;20481;-75
2020/12/09 08:00:55;;;;;;;9.13;6.97;;;21.40;54.60;;;;;;5144356;28;20128;-74
2020/12/09 08:03:26;;;;;;;9.88;6.45;;;21.40;54.50;;;;;;5161726;28;20029;-76
2020/12/09 08:05:57;;;;;;;10.35;6.22;;;21.40;54.40;;;;;;5162021;28;20043;-76
2020/12/09 08:08:27;;;;;;;6.97;6.18;;;21.40;54.40;;;;;;5162162;28;20519;-77
2020/12/09 08:11:05;;;;;;;7.75;6.18;;;21.40;54.60;;;;;;5143542;28;20527;-75
2020/12/09 08:13:35;;;;;;;8.20;6.43;;;21.40;54.60;;;;;;5161587;28;20101;-77
2020/12/09 08:16:10;;;;;;;8.38;6.47;;;21.40;54.30;;;;;;5145517;28;20169;-76
2020/12/09 08:18:42;;;;;;;7.78;6.40;;;21.40;54.60;;;;;;5145601;28;20027;-76
2020/12/09 08:21:12;;;;;;;10.02;7.20;;;21.40;54.50;;;;;;5155113;28;20404;-78
2020/12/09 08:23:46;;;;;;;8.00;6.38;;;21.50;54.70;;;;;;5144841;28;20022;-77
2020/12/09 08:26:29;;;;;;;10.05;6.03;;;21.50;54.70;;;;;;5142905;28;20049;-77
2020/12/09 08:29:00;;;;;;;10.38;6.18;;;21.50;54.70;;;;;;5108949;28;20029;-74
2020/12/09 08:31:31;;;;;;;9.45;6.70;;;21.50;54.50;;;;;;5157988;28;20031;-76
2020/12/09 08:34:01;;;;;;;8.68;6.55;;;21.50;55.00;;;;;;5142839;28;20157;-75
2020/12/09 08:36:33;;;;;;;8.18;6.30;;;21.50;54.60;;;;;;5162493;28;20035;-76
2020/12/09 08:39:04;;;;;;;8.60;6.35;;;21.60;54.50;;;;;;5144936;28;20045;-76
2020/12/09 08:41:35;;;;;;;11.23;5.97;;;21.50;54.40;;;;;;5159995;28;20509;-76
2020/12/09 08:44:06;;;;;;;10.45;6.38;;;21.50;54.70;;;;;;5145313;28;20165;-76
2020/12/09 08:46:37;;;;;;;22.42;6.60;;;21.50;55.10;;;;;;5144060;28;20030;-74
2020/12/09 08:49:07;;;;;;;15.68;6.57;;;21.50;55.40;;;;;;5161121;28;20038;-76
2020/12/09 08:51:38;;;;;;;12.77;6.22;;;21.50;55.20;;;;;;5144794;28;20416;-75
2020/12/09 08:54:10;;;;;;;10.75;5.85;;;21.60;55.70;;;;;;5161861;28;20038;-74
2020/12/09 08:56:40;;;;;;;11.82;7.00;;;21.50;55.30;;;;;;5160826;28;20118;-77
2020/12/09 08:59:12;;;;;;;18.73;6.75;;;21.60;55.80;;;;;;5161706;28;20117;-72
2020/12/09 09:01:43;;;;;;;24.83;7.18;;;21.50;56.50;;;;;;5162192;28;20034;-74
2020/12/09 09:04:15;;;;;;;11.43;6.47;;;21.50;57.10;;;;;;5130407;28;20516;-75
2020/12/09 09:06:46;;;;;;;11.05;6.40;;;21.60;57.30;;;;;;5162781;28;20023;-75
2020/12/09 09:09:16;;;;;;;12.80;7.40;;;21.60;57.50;;;;;;5146896;28;20064;-75
2020/12/09 09:11:47;;;;;;;14.02;6.38;;;21.60;57.70;;;;;;5144311;28;20039;-75
2020/12/09 09:14:17;;;;;;;14.20;6.82;;;21.60;57.70;;;;;;5151058;28;20019;-74
2020/12/09 09:16:48;;;;;;;16.15;6.93;;;21.60;57.80;;;;;;5115999;28;20070;-74
2020/12/09 09:19:18;;;;;;;15.55;6.32;;;21.60;57.80;;;;;;5126588;28;20551;-75
2020/12/09 09:21:49;;;;;;;17.08;7.53;;;21.60;58.30;;;;;;5145135;28;20026;-74
2020/12/09 09:24:19;;;;;;;14.65;7.07;;;21.60;58.40;;;;;;5158098;28;20486;-75
2020/12/09 09:26:50;;;;;;;25.98;15.93;;;21.60;58.40;;;;;;5145465;28;20031;-75
2020/12/09 09:29:20;;;;;;;28.25;17.20;;;20.20;51.70;;;;;;5146884;28;20053;-74
2020/12/09 09:31:51;;;;;;;30.83;18.88;;;18.60;54.90;;;;;;5137108;28;20038;-75
2020/12/09 09:34:21;;;;;;;22.85;15.40;;;17.80;57.20;;;;;;5162856;28;20493;-76
2020/12/09 09:36:52;;;;;;;23.17;15.57;;;17.40;58.20;;;;;;5164470;28;20061;-76
2020/12/09 09:39:22;;;;;;;24.05;15.10;;;17.30;57.90;;;;;;5164913;28;20378;-75
2020/12/09 09:41:56;;;;;;;22.90;15.88;;;17.30;58.40;;;;;;5180692;28;20022;-76
2020/12/09 09:44:27;;;;;;;27.05;16.42;;;17.20;59.00;;;;;;5154411;28;20033;-76
2020/12/09 09:46:58;;;;;;;25.75;16.48;;;17.20;59.70;;;;;;5131419;28;20030;-76
2020/12/09 09:49:28;;;;;;;24.08;16.10;;;17.20;58.40;;;;;;5164349;28;20026;-76
2020/12/09 09:51:59;;;;;;;29.77;17.52;;;17.20;57.70;;;;;;5148061;28;20492;-75
2020/12/09 09:54:30;;;;;;;28.13;17.10;;;17.10;58.00;;;;;;5164052;28;20073;-76
2020/12/09 09:57:00;;;;;;;26.05;17.52;;;17.00;58.70;;;;;;5165563;28;20057;-75
2020/12/09 09:59:31;;;;;;;29.00;18.85;;;16.80;57.80;;;;;;5147560;28;20117;-76
2020/12/09 10:02:01;;;;;;;30.15;19.13;;;16.60;57.90;;;;;;5129271;28;20039;-75
2020/12/09 10:04:32;;;;;;;31.23;19.15;;;16.50;57.80;;;;;;5129766;28;20081;-75
2020/12/09 10:07:03;;;;;;;37.03;23.27;;;16.40;57.30;;;;;;5130753;28;20033;-76
2020/12/09 10:09:33;;;;;;;35.20;22.15;;;16.30;56.90;;;;;;5114765;28;20481;-76
2020/12/09 10:12:04;;;;;;;36.83;22.08;;;16.40;56.90;;;;;;5145991;28;20424;-75
2020/12/09 10:14:35;;;;;;;37.15;23.10;;;16.30;56.90;;;;;;5149094;28;20031;-76
2020/12/09 10:17:06;;;;;;;34.78;22.40;;;16.20;56.40;;;;;;5113181;28;20134;-76
2020/12/09 10:19:36;;;;;;;35.90;22.80;;;16.30;56.80;;;;;;5143501;28;20106;-75
2020/12/09 10:22:11;;;;;;;36.75;23.88;;;16.20;56.10;;;;;;5127804;28;20037;-74
2020/12/09 10:24:41;;;;;;;35.88;24.73;;;16.20;56.30;;;;;;5141683;28;20043;-76
2020/12/09 10:27:12;;;;;;;36.28;22.90;;;16.20;55.80;;;;;;5141829;28;20057;-76
2020/12/09 10:29:43;;;;;;;38.13;24.13;;;16.20;55.90;;;;;;5165027;28;20030;-76
2020/12/09 10:32:14;;;;;;;37.25;23.38;;;16.20;55.20;;;;;;5180706;28;20042;-75
2020/12/09 10:34:44;;;;;;;35.50;23.40;;;16.10;54.80;;;;;;5148115;28;20117;-75
2020/12/09 10:37:15;;;;;;;35.00;23.25;;;16.10;54.70;;;;;;5132667;28;20635;-75
2020/12/09 10:39:46;;;;;;;40.38;23.70;;;16.10;55.50;;;;;;5133127;28;20228;-76
2020/12/09 10:42:17;;;;;;;35.40;24.33;;;16.10;54.80;;;;;;5165951;28;20022;-75
2020/12/09 10:44:48;;;;;;;36.38;23.25;;;16.10;54.50;;;;;;5166713;28;20057;-74
2020/12/09 10:47:18;;;;;;;34.83;22.55;;;16.10;54.20;;;;;;5148809;28;20057;-74
2020/12/09 10:49:49;;;;;;;34.45;21.92;;;16.00;53.80;;;;;;5150447;28;20401;-74
2020/12/09 10:52:20;;;;;;;34.97;22.98;;;16.00;53.90;;;;;;5133435;28;20022;-74
2020/12/09 10:54:50;;;;;;;34.58;22.08;;;16.00;53.90;;;;;;5156168;28;20101;-74
2020/12/09 10:57:21;;;;;;;33.92;21.83;;;16.00;53.60;;;;;;5147729;28;20018;-74
2020/12/09 10:59:51;;;;;;;33.55;22.52;;;16.00;53.90;;;;;;5157816;28;20034;-74
2020/12/09 11:02:22;;;;;;;36.15;22.17;;;16.00;54.00;;;;;;5144934;28;20022;-75
2020/12/09 11:04:52;;;;;;;35.80;23.13;;;16.00;53.90;;;;;;5144682;28;20038;-77
2020/12/09 11:07:23;;;;;;;34.08;22.40;;;16.00;53.60;;;;;;5160455;28;20022;-76
2020/12/09 11:09:53;;;;;;;28.90;16.85;;;16.00;54.20;;;;;;5162621;28;20512;-75
2020/12/09 11:12:24;;;;;;;25.45;16.13;;;16.30;58.30;;;;;;5152423;28;20041;-76
2020/12/09 11:14:54;;;;;;;25.13;16.38;;;16.50;58.70;;;;;;5163769;28;20034;-74
2020/12/09 11:17:25;;;;;;;21.52;15.63;;;16.60;58.10;;;;;;5145705;28;20501;-75
2020/12/09 11:19:55;;;;;;;15.95;11.02;;;16.80;61.70;;;;;;5162409;28;20386;-76
2020/12/09 11:22:26;;;;;;;19.90;12.27;;;17.70;63.00;;;;;;5141760;28;20141;-75
2020/12/09 11:24:57;;;;;;;21.58;11.98;;;18.50;59.70;;;;;;5147516;28;20037;-75
2020/12/09 11:27:27;;;;;;;18.80;12.52;;;19.20;57.40;;;;;;5161271;28;20050;-74
2020/12/09 11:29:58;;;;;;;19.80;12.05;;;19.60;56.00;;;;;;5164667;28;20378;-74
2020/12/09 11:32:32;;;;;;;15.25;11.35;;;19.90;55.20;;;;;;5161570;28;20493;-76
2020/12/09 11:35:03;;;;;;;19.20;11.63;;;20.10;54.60;;;;;;5133700;28;20397;-75
2020/12/09 11:37:34;;;;;;;15.18;11.55;;;20.20;54.30;;;;;;5156959;28;20035;-76
2020/12/09 11:40:04;;;;;;;16.52;11.65;;;20.30;53.90;;;;;;5156875;28;20436;-76
2020/12/09 11:42:37;;;;;;;19.92;10.13;;;20.40;53.80;;;;;;5141476;28;20089;-75
2020/12/09 11:45:07;;;;;;;17.70;10.38;;;20.60;54.20;;;;;;5162367;28;20074;-76
2020/12/09 11:47:38;;;;;;;14.48;9.75;;;20.70;54.10;;;;;;5145600;28;20046;-75
2020/12/09 11:50:08;;;;;;;15.13;8.93;;;20.80;54.10;;;;;;5147161;28;20651;-75
2020/12/09 11:52:39;;;;;;;25.83;10.82;;;20.90;54.20;;;;;;5148228;28;20030;-75
2020/12/09 11:55:11;;;;;;;64.25;17.60;;;20.90;55.40;;;;;;5168190;23;20045;-76
2020/12/09 11:57:42;;;;;;;46.40;14.32;;;21.00;57.20;;;;;;5164315;28;20030;-73
2020/12/09 12:00:13;;;;;;;35.00;13.75;;;21.10;57.10;;;;;;5155498;28;21641;-74
2020/12/09 12:02:44;;;;;;;35.30;13.40;;;21.20;57.00;;;;;;5183904;28;20026;-74
2020/12/09 12:05:21;;;;;;;27.30;12.50;;;21.20;57.00;;;;;;5172952;28;20029;-76
2020/12/09 12:07:55;;;;;;;27.92;12.25;;;21.30;56.60;;;;;;5134758;28;20062;-74
2020/12/09 12:10:28;;;;;;;30.95;12.27;;;21.30;56.20;;;;;;5134614;28;20116;-76
2020/12/09 12:13:03;;;;;;;26.63;12.88;;;21.30;56.00;;;;;;5147235;28;20030;-77
2020/12/09 12:15:34;;;;;;;23.75;12.05;;;21.30;56.00;;;;;;5165746;28;20048;-75
2020/12/09 12:18:04;;;;;;;30.77;11.57;;;21.40;55.90;;;;;;5149867;28;20022;-74
2020/12/09 12:20:35;;;;;;;27.00;11.80;;;21.40;55.80;;;;;;5156251;28;20026;-74
2020/12/09 12:23:06;;;;;;;19.35;10.85;;;21.30;55.90;;;;;;5143663;28;20092;-75
2020/12/09 12:25:36;;;;;;;25.60;10.48;;;21.40;55.90;;;;;;5162223;28;20702;-75
2020/12/09 12:28:10;;;;;;;23.45;11.00;;;21.40;56.10;;;;;;5168943;28;20030;-76
2020/12/09 12:30:41;;;;;;;20.05;10.75;;;21.40;56.10;;;;;;5157024;28;20128;-75
2020/12/09 12:33:12;;;;;;;22.90;10.65;;;21.40;56.40;;;;;;5151799;28;20481;-76
2020/12/09 12:35:43;;;;;;;19.17;9.88;;;21.30;56.50;;;;;;5169523;28;20034;-76
2020/12/09 12:38:13;;;;;;;22.10;10.65;;;21.40;56.60;;;;;;5169047;28;20033;-75
2020/12/09 12:40:44;;;;;;;20.13;9.70;;;21.40;56.60;;;;;;5151615;28;20104;-75
2020/12/09 12:43:14;;;;;;;14.13;10.05;;;21.40;56.60;;;;;;5166519;28;20057;-75
2020/12/09 12:45:48;;;;;;;18.23;9.75;;;21.40;56.70;;;;;;5166458;28;20112;-75
2020/12/09 12:48:19;;;;;;;17.85;10.07;;;21.40;56.80;;;;;;5151964;28;20114;-75
2020/12/09 12:50:50;;;;;;;19.25;10.45;;;21.40;56.80;;;;;;5151398;28;20120;-75
2020/12/09 12:53:21;;;;;;;19.05;9.85;;;21.40;56.70;;;;;;5151491;28;20241;-75
2020/12/09 12:55:52;;;;;;;18.92;10.30;;;21.50;56.70;;;;;;5165377;28;20088;-74
2020/12/09 12:58:22;;;;;;;16.73;9.95;;;21.40;56.70;;;;;;5169206;28;20037;-75
2020/12/09 13:00:53;;;;;;;19.05;10.57;;;21.40;56.90;;;;;;5138625;28;20046;-75